createdAt,value
2022-09-23T00:01:22.446Z,69.55
2022-09-23T00:03:50.400Z,69.14
2022-09-23T00:06:21.198Z,69.36
2022-09-23T00:08:52.151Z,69.10
2022-09-23T00:11:25.180Z,69.46
2022-09-23T00:13:58.062Z,69.79
2022-09-23T00:16:32.783Z,70.45
2022-09-23T00:19:04.682Z,70.31
2022-09-23T00:21:32.346Z,70.87
2022-09-23T00:24:00.575Z,70.35
2022-09-23T00:26:28.169Z,70.73
2022-09-23T00:28:55.928Z,71.57
2022-09-23T00:31:26.188Z,71.92
2022-09-23T00:34:01.239Z,71.11
2022-09-23T00:36:30.207Z,70.36
2022-09-23T00:38:59.343Z,70.18
2022-09-23T00:41:27.373Z,69.84
2022-09-23T00:43:57.909Z,71.93
2022-09-23T00:46:31.313Z,72.53
2022-09-23T00:49:14.073Z,72.71
2022-09-23T00:51:50.683Z,71.77
2022-09-23T00:54:19.014Z,71.30
2022-09-23T00:56:46.418Z,71.32
2022-09-23T00:59:14.142Z,71.41
2022-09-23T01:01:43.472Z,71.04
2022-09-23T01:04:10.859Z,71.13
2022-09-23T01:06:38.403Z,71.10
2022-09-23T01:09:06.080Z,70.49
2022-09-23T01:11:47.241Z,70.07
2022-09-23T01:14:27.128Z,70.30
2022-09-23T01:17:04.089Z,70.11
2022-09-23T01:19:44.911Z,69.93
2022-09-23T01:22:19.254Z,70.60
2022-09-23T01:25:32.111Z,71.37
2022-09-23T01:28:21.693Z,71.82
2022-09-23T01:31:17.676Z,72.21
2022-09-23T01:33:59.481Z,72.03
2022-09-23T01:36:39.953Z,71.61
2022-09-23T01:39:35.502Z,71.09
2022-09-23T01:42:17.143Z,71.34
2022-09-23T01:44:53.671Z,72.77
2022-09-23T01:47:36.217Z,72.50
2022-09-23T01:50:33.254Z,72.53
2022-09-23T01:53:06.377Z,72.25
2022-09-23T01:55:48.582Z,72.11
2022-09-23T01:58:24.770Z,73.67
2022-09-23T02:01:05.191Z,72.71
2022-09-23T02:03:49.582Z,71.78
2022-09-23T02:06:26.007Z,71.75
2022-09-23T02:09:02.117Z,71.05
2022-09-23T02:11:36.483Z,71.66
2022-09-23T02:14:27.082Z,71.16
2022-09-23T02:16:58.582Z,70.80
2022-09-23T02:19:41.998Z,70.84
2022-09-23T02:22:15.714Z,71.14
2022-09-23T02:24:45.280Z,70.76
2022-09-23T02:27:39.792Z,72.26
2022-09-23T02:30:19.252Z,73.24
2022-09-23T02:32:53.389Z,72.19
2022-09-23T02:35:33.130Z,72.11
2022-09-23T02:38:15.687Z,72.97
2022-09-23T02:41:05.331Z,74.08
2022-09-23T02:43:35.781Z,73.11
2022-09-23T02:46:05.133Z,72.82
2022-09-23T02:48:38.114Z,72.19
2022-09-23T02:51:06.245Z,72.32
2022-09-23T02:53:35.017Z,72.45
2022-09-23T02:56:13.296Z,72.45
2022-09-23T02:58:41.096Z,72.00
2022-09-23T03:01:52.410Z,72.14
2022-09-23T03:04:38.957Z,72.27
2022-09-23T03:07:11.438Z,73.19
2022-09-23T03:09:49.231Z,73.34
2022-09-23T03:12:34.484Z,73.23
2022-09-23T03:15:14.479Z,73.04
2022-09-23T03:17:49.334Z,73.21
2022-09-23T03:20:44.876Z,73.44
2022-09-23T03:23:15.431Z,73.71
2022-09-23T03:25:47.507Z,73.25
2022-09-23T03:28:17.657Z,73.69
2022-09-23T03:30:47.842Z,73.91
2022-09-23T03:33:18.121Z,75.17
2022-09-23T03:36:13.640Z,75.56
2022-09-23T03:38:46.081Z,76.22
2022-09-23T03:41:17.770Z,76.17
2022-09-23T03:43:46.201Z,76.56
2022-09-23T03:46:18.558Z,76.68
2022-09-23T03:48:45.935Z,76.46
2022-09-23T03:51:24.702Z,75.76
2022-09-23T03:53:52.220Z,76.07
2022-09-23T03:56:19.882Z,76.10
2022-09-23T03:58:47.292Z,76.20
2022-09-23T04:01:16.114Z,76.18
2022-09-23T04:03:45.943Z,75.98
2022-09-23T04:06:14.276Z,75.93
2022-09-23T04:08:42.276Z,74.34
2022-09-23T04:11:10.552Z,76.02
2022-09-23T04:13:38.059Z,76.69
2022-09-23T04:16:06.334Z,77.49
2022-09-23T04:18:34.397Z,78.08
2022-09-23T04:21:02.655Z,77.74
2022-09-23T04:23:30.178Z,76.82
2022-09-23T04:25:57.973Z,76.81
2022-09-23T04:28:26.371Z,78.78
2022-09-23T04:30:55.228Z,79.51
2022-09-23T04:33:24.664Z,78.47
2022-09-23T04:35:52.561Z,78.70
2022-09-23T04:38:19.962Z,78.02
2022-09-23T04:40:48.693Z,78.06
2022-09-23T04:43:16.633Z,77.83
2022-09-23T04:45:44.491Z,78.41
2022-09-23T04:48:14.100Z,79.35
2022-09-23T04:50:42.727Z,78.73
2022-09-23T04:53:10.441Z,78.39
2022-09-23T04:55:38.155Z,78.71
2022-09-23T04:58:05.575Z,77.21
2022-09-23T05:00:33.678Z,77.84
2022-09-23T05:03:01.471Z,78.56
2022-09-23T05:05:31.377Z,78.31
2022-09-23T05:07:58.990Z,79.27
2022-09-23T05:10:26.717Z,77.79
2022-09-23T05:12:57.424Z,77.32
2022-09-23T05:15:25.352Z,76.81
2022-09-23T05:17:53.604Z,75.67
2022-09-23T05:20:21.600Z,76.24
2022-09-23T05:22:48.962Z,75.05
2022-09-23T05:25:16.953Z,76.53
2022-09-23T05:27:44.316Z,77.15
2022-09-23T05:30:11.919Z,76.68
2022-09-23T05:32:40.549Z,76.67
2022-09-23T05:35:08.346Z,76.76
2022-09-23T05:37:35.658Z,77.11
2022-09-23T05:40:04.407Z,77.45
2022-09-23T05:42:32.693Z,79.26
2022-09-23T05:45:00.129Z,81.19
2022-09-23T05:47:28.221Z,79.86
2022-09-23T05:50:00.182Z,80.01
2022-09-23T05:52:29.730Z,79.88
2022-09-23T05:54:57.114Z,79.27
2022-09-23T05:57:24.706Z,79.29
2022-09-23T05:59:53.262Z,78.54
2022-09-23T06:02:20.667Z,77.71
2022-09-23T06:04:48.586Z,77.21
2022-09-23T06:07:16.327Z,77.73
2022-09-23T06:09:44.237Z,79.90
2022-09-23T06:12:14.254Z,80.79
2022-09-23T06:14:42.517Z,81.41
2022-09-23T06:17:09.830Z,80.91
2022-09-23T06:19:37.471Z,80.92
2022-09-23T06:22:05.022Z,80.45
2022-09-23T06:24:32.417Z,79.50
2022-09-23T06:27:01.159Z,78.96
2022-09-23T06:29:31.022Z,78.42
2022-09-23T06:32:00.152Z,78.52
2022-09-23T06:34:28.402Z,76.69
2022-09-23T06:36:55.964Z,77.20
2022-09-23T06:39:23.556Z,77.70
2022-09-23T06:41:51.406Z,79.28
2022-09-23T06:44:19.111Z,77.79
2022-09-23T06:46:46.553Z,77.16
2022-09-23T06:49:15.084Z,76.66
2022-09-23T06:51:43.149Z,78.18
2022-09-23T06:54:11.308Z,78.51
2022-09-23T06:56:40.262Z,78.94
2022-09-23T06:59:11.186Z,78.94
2022-09-23T07:01:39.380Z,79.04
2022-09-23T07:04:08.067Z,77.95
2022-09-23T07:06:35.837Z,77.27
2022-09-23T07:09:05.797Z,77.08
2022-09-23T07:11:33.555Z,77.62
2022-09-23T07:14:01.034Z,77.83
2022-09-23T07:16:29.099Z,78.50
2022-09-23T07:18:56.829Z,76.70
2022-09-23T07:21:24.474Z,75.42
2022-09-23T07:23:53.786Z,74.29
2022-09-23T07:26:23.317Z,74.07
2022-09-23T07:29:04.937Z,72.94
2022-09-23T07:31:39.615Z,70.72
2022-09-23T07:34:11.870Z,70.36
2022-09-23T07:36:41.520Z,70.36
2022-09-23T07:39:12.720Z,70.07
2022-09-23T07:41:44.820Z,70.52
2022-09-23T07:44:13.171Z,69.29
2022-09-23T07:46:41.318Z,67.37
2022-09-23T07:49:09.008Z,67.06
2022-09-23T07:51:38.956Z,66.99
2022-09-23T07:54:10.087Z,66.95
2022-09-23T07:56:38.649Z,66.75
2022-09-23T07:59:09.208Z,67.06
2022-09-23T08:01:40.249Z,67.19
2022-09-23T08:04:19.241Z,66.78
2022-09-23T08:06:54.557Z,66.77
2022-09-23T08:09:25.709Z,66.49
2022-09-23T08:11:54.446Z,66.51
2022-09-23T08:14:25.177Z,66.02
2022-09-23T08:16:52.958Z,65.49
2022-09-23T08:19:20.899Z,63.51
2022-09-23T08:21:52.742Z,61.59
2022-09-23T08:24:25.177Z,61.38
2022-09-23T08:26:54.780Z,61.70
2022-09-23T08:29:24.370Z,61.99
2022-09-23T08:31:52.825Z,61.72
2022-09-23T08:34:21.544Z,61.24
2022-09-23T08:36:49.499Z,61.16
2022-09-23T08:39:18.863Z,59.95
2022-09-23T08:41:49.772Z,60.36
2022-09-23T08:44:24.302Z,61.37
2022-09-23T08:47:12.119Z,59.32
2022-09-23T08:49:47.273Z,58.03
2022-09-23T08:52:27.331Z,57.51
2022-09-23T08:54:56.061Z,57.92
2022-09-23T08:57:40.270Z,55.24
2022-09-23T09:00:17.904Z,55.51
2022-09-23T09:02:45.920Z,56.44
2022-09-23T09:05:20.070Z,56.42
2022-09-23T09:07:47.858Z,54.17
2022-09-23T09:10:46.880Z,53.51
2022-09-23T09:13:30.590Z,51.41
2022-09-23T09:16:48.380Z,51.60
2022-09-23T09:19:38.892Z,51.76
2022-09-23T09:22:12.499Z,52.52
2022-09-23T09:24:40.412Z,52.66
2022-09-23T09:27:13.202Z,50.52
2022-09-23T09:29:49.846Z,48.50
2022-09-23T09:32:29.668Z,50.16
2022-09-23T09:35:05.795Z,48.07
2022-09-23T09:37:47.694Z,49.75
2022-09-23T09:40:20.781Z,50.03
2022-09-23T09:42:50.461Z,48.44
2022-09-23T09:45:26.563Z,46.88
2022-09-23T09:48:06.126Z,46.58
2022-09-23T09:50:47.607Z,44.48
2022-09-23T09:53:17.136Z,43.89
2022-09-23T09:55:46.261Z,44.41
2022-09-23T09:58:16.592Z,43.62
2022-09-23T10:00:46.475Z,46.41
2022-09-23T10:03:14.470Z,45.34
2022-09-23T10:05:45.593Z,45.01
2022-09-23T10:08:32.586Z,44.52
2022-09-23T10:11:03.396Z,43.16
2022-09-23T10:13:32.118Z,43.96
2022-09-23T10:16:04.089Z,44.42
2022-09-23T10:18:48.374Z,42.57
2022-09-23T10:21:24.190Z,41.75
2022-09-23T10:24:01.870Z,40.29
2022-09-23T10:26:55.828Z,40.04
2022-09-23T10:29:39.101Z,39.61
2022-09-23T10:32:37.929Z,40.62
2022-09-23T10:35:13.544Z,40.70
2022-09-23T10:37:50.516Z,42.83
2022-09-23T10:40:46.074Z,40.68
2022-09-23T10:43:41.791Z,39.05
2022-09-23T10:46:39.256Z,38.43
2022-09-23T10:49:18.947Z,40.00
2022-09-23T10:52:00.082Z,35.83
2022-09-23T10:54:46.911Z,36.10
2022-09-23T10:57:38.255Z,37.01
2022-09-23T11:00:12.691Z,34.28
2022-09-23T11:02:56.346Z,36.27
2022-09-23T11:06:04.944Z,37.37
2022-09-23T11:08:42.807Z,38.29
2022-09-23T11:11:34.304Z,38.30
2022-09-23T11:14:41.348Z,40.96
2022-09-23T11:17:12.969Z,39.96
2022-09-23T11:20:16.201Z,35.81
2022-09-23T11:23:26.746Z,37.00
2022-09-23T11:26:19.826Z,36.77
2022-09-23T11:28:58.869Z,38.09
2022-09-23T11:31:43.066Z,37.06
2022-09-23T11:34:35.437Z,35.42
2022-09-23T11:37:20.504Z,37.43
2022-09-23T11:40:11.569Z,36.19
2022-09-23T11:42:55.441Z,35.98
2022-09-23T11:45:30.888Z,35.22
2022-09-23T11:48:06.145Z,35.06
2022-09-23T11:50:59.576Z,35.75
2022-09-23T11:53:43.355Z,35.37
2022-09-23T11:56:34.622Z,34.65
2022-09-23T11:59:31.447Z,34.49
2022-09-23T12:02:21.411Z,34.45
2022-09-23T12:05:02.999Z,33.95
2022-09-23T12:07:46.984Z,32.07
2022-09-23T12:10:16.195Z,33.17
2022-09-23T12:12:56.227Z,33.07
2022-09-23T12:16:10.314Z,33.11
2022-09-23T12:18:51.886Z,34.19
2022-09-23T12:21:50.140Z,33.86
2022-09-23T12:24:35.117Z,34.17
2022-09-23T12:27:09.324Z,33.62
2022-09-23T12:29:40.075Z,34.73
2022-09-23T12:32:13.206Z,32.81
2022-09-23T12:34:49.201Z,34.06
2022-09-23T12:37:24.692Z,33.78
2022-09-23T12:39:52.600Z,34.61
2022-09-23T12:42:27.689Z,33.34
2022-09-23T12:45:32.699Z,32.94
2022-09-23T12:48:24.733Z,33.52
2022-09-23T12:51:12.830Z,32.10
2022-09-23T12:53:53.520Z,32.55
2022-09-23T12:56:25.394Z,33.04
2022-09-23T12:59:01.450Z,34.72
2022-09-23T13:01:37.351Z,34.86
2022-09-23T13:04:24.309Z,33.75
2022-09-23T13:06:58.961Z,35.25
2022-09-23T13:09:30.992Z,35.23
2022-09-23T13:12:02.160Z,34.52
2022-09-23T13:14:32.988Z,35.26
2022-09-23T13:17:00.919Z,35.61
2022-09-23T13:19:28.321Z,34.64
2022-09-23T13:22:09.336Z,35.55
2022-09-23T13:24:40.299Z,36.32
2022-09-23T13:27:23.262Z,37.20
2022-09-23T13:29:56.641Z,38.12
2022-09-23T13:32:39.754Z,37.87
2022-09-23T13:35:20.103Z,38.55
2022-09-23T13:37:50.010Z,38.06
2022-09-23T13:40:24.527Z,39.12
2022-09-23T13:43:05.340Z,38.03
2022-09-23T13:45:38.355Z,36.01
2022-09-23T13:48:11.729Z,35.92
2022-09-23T13:50:41.104Z,33.81
2022-09-23T13:53:17.576Z,33.58
2022-09-23T13:55:48.993Z,33.07
2022-09-23T13:58:22.615Z,34.13
2022-09-23T14:00:51.175Z,35.60
2022-09-23T14:03:27.061Z,36.69
2022-09-23T14:05:56.612Z,36.51
2022-09-23T14:08:25.364Z,36.57
2022-09-23T14:10:54.004Z,35.39
2022-09-23T14:13:28.389Z,34.48
2022-09-23T14:15:59.734Z,34.49
2022-09-23T14:18:36.704Z,32.74
2022-09-23T14:21:05.361Z,31.32
2022-09-23T14:23:33.193Z,32.22
2022-09-23T14:26:02.771Z,31.21
2022-09-23T14:28:30.693Z,30.39
2022-09-23T14:30:58.686Z,28.54
2022-09-23T14:33:30.905Z,27.25
2022-09-23T14:36:44.318Z,27.87
2022-09-23T14:39:12.810Z,28.69
2022-09-23T14:41:43.982Z,28.66
2022-09-23T14:44:25.400Z,30.98
2022-09-23T14:46:57.472Z,31.47
2022-09-23T14:49:26.055Z,30.11
2022-09-23T14:52:04.289Z,28.11
2022-09-23T14:54:51.077Z,27.41
2022-09-23T14:57:30.671Z,25.66
2022-09-23T15:00:08.217Z,25.87
2022-09-23T15:02:38.389Z,25.52
2022-09-23T15:05:19.074Z,25.98
2022-09-23T15:07:52.540Z,25.05
2022-09-23T15:10:30.452Z,25.62
2022-09-23T15:13:27.279Z,26.22
2022-09-23T15:15:55.849Z,27.21
2022-09-23T15:18:26.752Z,30.40
2022-09-23T15:20:58.192Z,32.70
2022-09-23T15:23:44.571Z,32.69
2022-09-23T15:26:18.915Z,32.17
2022-09-23T15:28:47.884Z,30.61
2022-09-23T15:31:19.894Z,29.20
2022-09-23T15:33:49.283Z,29.86
2022-09-23T15:36:20.006Z,31.72
2022-09-23T15:38:48.421Z,33.40
2022-09-23T15:41:17.570Z,34.21
2022-09-23T15:43:46.197Z,35.41
2022-09-23T15:46:22.439Z,36.82
2022-09-23T15:48:58.974Z,37.70
2022-09-23T15:51:27.804Z,39.66
2022-09-23T15:53:56.560Z,40.46
2022-09-23T15:56:24.976Z,42.07
2022-09-23T15:58:53.011Z,40.59
2022-09-23T16:01:20.498Z,42.56
2022-09-23T16:03:48.168Z,42.60
2022-09-23T16:06:16.100Z,41.26
2022-09-23T16:08:43.718Z,42.11
2022-09-23T16:11:27.086Z,43.79
2022-09-23T16:13:54.684Z,43.22
2022-09-23T16:16:22.723Z,43.75
2022-09-23T16:18:53.255Z,44.53
2022-09-23T16:21:24.498Z,45.18
2022-09-23T16:23:53.592Z,46.14
2022-09-23T16:26:24.481Z,46.52
2022-09-23T16:28:54.889Z,47.06
2022-09-23T16:31:25.456Z,47.84
2022-09-23T16:33:53.905Z,48.42
2022-09-23T16:36:27.537Z,49.26
2022-09-23T16:38:56.022Z,49.89
2022-09-23T16:41:25.298Z,50.74
2022-09-23T16:43:53.773Z,50.91
2022-09-23T16:46:24.079Z,49.94
2022-09-23T16:48:53.119Z,50.54
2022-09-23T16:51:23.990Z,51.47
2022-09-23T16:53:51.765Z,51.42
2022-09-23T16:56:27.277Z,51.62
2022-09-23T16:58:57.150Z,52.62
2022-09-23T17:01:46.365Z,52.98
2022-09-23T17:04:15.968Z,52.92
2022-09-23T17:06:50.643Z,53.72
2022-09-23T17:09:20.976Z,53.58
2022-09-23T17:12:02.412Z,53.81
2022-09-23T17:14:34.789Z,54.89
2022-09-23T17:17:02.119Z,55.07
2022-09-23T17:19:29.859Z,55.20
2022-09-23T17:21:57.174Z,55.38
2022-09-23T17:24:24.613Z,55.59
2022-09-23T17:26:53.409Z,56.25
2022-09-23T17:29:21.004Z,56.51
2022-09-23T17:31:48.509Z,57.20
2022-09-23T17:34:18.935Z,57.48
2022-09-23T17:36:46.324Z,57.82
2022-09-23T17:39:14.134Z,57.34
2022-09-23T17:41:41.896Z,58.19
2022-09-23T17:44:12.173Z,58.33
2022-09-23T17:46:39.496Z,59.36
2022-09-23T17:49:08.567Z,58.89
2022-09-23T17:51:36.322Z,58.78
2022-09-23T17:54:03.840Z,58.60
2022-09-23T17:56:31.581Z,58.87
2022-09-23T17:59:03.016Z,58.56
2022-09-23T18:01:30.896Z,58.44
2022-09-23T18:04:00.915Z,59.40
2022-09-23T18:06:33.698Z,59.22
2022-09-23T18:09:06.087Z,59.58
2022-09-23T18:11:36.192Z,59.67
2022-09-23T18:14:07.011Z,59.67
2022-09-23T18:16:37.729Z,60.35
2022-09-23T18:19:07.230Z,60.29
2022-09-23T18:21:35.675Z,60.09
2022-09-23T18:24:28.147Z,60.09
2022-09-23T18:26:51.172Z,60.39
2022-09-23T18:29:19.806Z,61.49
2022-09-23T18:31:47.582Z,62.33
2022-09-23T18:34:20.729Z,61.60
2022-09-23T18:36:48.210Z,61.04
2022-09-23T18:39:15.931Z,61.89
2022-09-23T18:41:43.326Z,61.79
2022-09-23T18:44:11.316Z,61.82
2022-09-23T18:46:39.941Z,61.53
2022-09-23T18:49:26.016Z,61.93
2022-09-23T18:51:58.606Z,61.81
2022-09-23T18:54:28.937Z,61.95
2022-09-23T18:56:56.972Z,62.30
2022-09-23T18:59:30.001Z,62.17
2022-09-23T19:01:58.597Z,63.23
2022-09-23T19:04:27.460Z,64.01
2022-09-23T19:06:56.817Z,63.71
2022-09-23T19:09:24.897Z,63.64
2022-09-23T19:11:52.829Z,63.52
2022-09-23T19:14:20.446Z,63.50
2022-09-23T19:16:49.467Z,63.66
2022-09-23T19:19:16.957Z,63.33
2022-09-23T19:21:44.365Z,63.49
2022-09-23T19:24:16.304Z,63.69
2022-09-23T19:26:44.455Z,63.53
2022-09-23T19:29:15.827Z,63.73
2022-09-23T19:31:43.572Z,63.35
2022-09-23T19:34:20.158Z,63.63
2022-09-23T19:36:47.944Z,63.59
2022-09-23T19:39:17.503Z,63.78
2022-09-23T19:41:45.489Z,64.17
2022-09-23T19:44:13.516Z,64.28
2022-09-23T19:46:44.628Z,64.81
2022-09-23T19:49:12.288Z,64.52
2022-09-23T19:51:40.329Z,64.87
2022-09-23T19:54:09.383Z,64.90
2022-09-23T19:56:36.955Z,65.23
2022-09-23T19:59:07.407Z,65.68
2022-09-23T20:01:35.860Z,65.63
2022-09-23T20:04:04.580Z,65.05
2022-09-23T20:06:34.247Z,64.91
2022-09-23T20:09:02.071Z,65.16
2022-09-23T20:11:30.427Z,65.48
2022-09-23T20:14:01.918Z,64.82
2022-09-23T20:16:35.791Z,66.26
2022-09-23T20:19:05.088Z,66.70
2022-09-23T20:21:33.958Z,66.79
2022-09-23T20:24:02.179Z,66.62
2022-09-23T20:26:47.975Z,66.23
2022-09-23T20:29:15.756Z,65.79
2022-09-23T20:31:43.662Z,66.16
2022-09-23T20:34:12.476Z,65.95
2022-09-23T20:36:41.510Z,66.35
2022-09-23T20:39:10.084Z,67.65
2022-09-23T20:41:39.421Z,66.76
2022-09-23T20:44:10.485Z,67.74
2022-09-23T20:46:39.075Z,67.35
2022-09-23T20:49:08.962Z,66.65
2022-09-23T20:51:37.720Z,66.15
2022-09-23T20:54:05.087Z,66.70
2022-09-23T20:56:32.835Z,66.78
2022-09-23T20:59:01.404Z,66.34
2022-09-23T21:01:28.904Z,66.45
2022-09-23T21:03:56.714Z,66.73
2022-09-23T21:06:25.353Z,66.38
2022-09-23T21:08:53.904Z,66.42
2022-09-23T21:11:22.151Z,66.05
2022-09-23T21:13:51.459Z,66.06
2022-09-23T21:16:22.809Z,66.80
2022-09-23T21:18:51.933Z,67.19
2022-09-23T21:21:22.433Z,66.82
2022-09-23T21:23:51.401Z,67.17
2022-09-23T21:26:25.595Z,67.64
2022-09-23T21:28:57.157Z,68.30
2022-09-23T21:31:27.425Z,67.71
2022-09-23T21:33:57.218Z,66.49
2022-09-23T21:36:27.613Z,66.96
2022-09-23T21:38:58.338Z,66.89
2022-09-23T21:41:26.876Z,67.00
2022-09-23T21:43:56.453Z,67.12
2022-09-23T21:46:25.622Z,67.12
2022-09-23T21:48:55.123Z,67.08
2022-09-23T21:51:25.655Z,65.89
2022-09-23T21:53:55.812Z,66.66
2022-09-23T21:56:27.361Z,68.60
2022-09-23T21:58:58.398Z,68.89
2022-09-23T22:01:33.572Z,68.42
2022-09-23T22:04:05.382Z,68.40
2022-09-23T22:06:33.425Z,67.98
2022-09-23T22:09:03.958Z,66.87
2022-09-23T22:11:51.920Z,66.50
2022-09-23T22:14:23.488Z,67.20
2022-09-23T22:16:50.820Z,67.57
2022-09-23T22:19:18.085Z,67.17
2022-09-23T22:21:45.814Z,67.68
2022-09-23T22:24:13.503Z,66.97
2022-09-23T22:26:43.720Z,68.20
2022-09-23T22:29:32.924Z,67.95
2022-09-23T22:32:20.327Z,67.64
2022-09-23T22:34:50.981Z,68.14
2022-09-23T22:37:28.208Z,67.32
2022-09-23T22:39:57.061Z,67.27
2022-09-23T22:42:24.541Z,66.70
2022-09-23T22:44:52.622Z,66.51
2022-09-23T22:47:20.756Z,66.84
2022-09-23T22:49:48.626Z,66.82
2022-09-23T22:52:21.275Z,66.72
2022-09-23T22:54:49.800Z,66.72
2022-09-23T22:57:17.492Z,67.18
2022-09-23T22:59:48.248Z,67.52
2022-09-23T23:02:18.529Z,66.91
2022-09-23T23:04:49.569Z,68.44
2022-09-23T23:07:24.369Z,69.28
2022-09-23T23:09:52.498Z,69.76
2022-09-23T23:12:21.472Z,68.29
2022-09-23T23:14:49.500Z,67.84
2022-09-23T23:17:17.451Z,68.25
2022-09-23T23:19:45.273Z,68.96
2022-09-23T23:22:12.583Z,67.90
2022-09-23T23:24:40.070Z,67.46
2022-09-23T23:27:07.776Z,67.27
2022-09-23T23:29:35.123Z,68.48
2022-09-23T23:32:02.716Z,68.75
2022-09-23T23:34:30.480Z,67.98
2022-09-23T23:36:57.892Z,68.04
2022-09-23T23:39:25.750Z,68.14
2022-09-23T23:41:57.958Z,68.02
2022-09-23T23:44:26.630Z,68.88
2022-09-23T23:46:55.266Z,67.93
2022-09-23T23:49:23.113Z,67.88
2022-09-23T23:51:50.454Z,68.12
2022-09-23T23:54:18.123Z,68.68
2022-09-23T23:56:45.684Z,67.97
2022-09-23T23:59:13.625Z,68.15
